createdAt,value
2022-08-07T00:00:39.931Z,16.00
2022-08-07T00:03:08.567Z,15.90
2022-08-07T00:05:36.289Z,16.00
2022-08-07T00:08:04.966Z,15.80
2022-08-07T00:10:32.002Z,15.80
2022-08-07T00:13:09.674Z,15.70
2022-08-07T00:15:51.254Z,15.70
2022-08-07T00:18:26.969Z,15.80
2022-08-07T00:21:01.631Z,15.80
2022-08-07T00:23:31.240Z,15.80
2022-08-07T00:26:13.158Z,15.90
2022-08-07T00:28:56.489Z,15.90
2022-08-07T00:31:38.186Z,15.60
2022-08-07T00:34:09.602Z,15.60
2022-08-07T00:36:38.673Z,15.50
2022-08-07T00:39:16.184Z,15.60
2022-08-07T00:42:02.384Z,15.60
2022-08-07T00:44:33.633Z,15.70
2022-08-07T00:47:03.016Z,15.70
2022-08-07T00:50:20.315Z,15.70
2022-08-07T00:52:19.885Z,15.70
2022-08-07T00:54:53.562Z,15.70
2022-08-07T00:57:25.839Z,15.70
2022-08-07T00:59:53.843Z,15.70
2022-08-07T01:02:28.392Z,15.70
2022-08-07T01:04:58.756Z,15.70
2022-08-07T01:07:27.707Z,15.70
2022-08-07T01:10:05.039Z,15.60
2022-08-07T01:12:39.114Z,15.60
2022-08-07T01:15:07.412Z,15.60
2022-08-07T01:17:40.048Z,15.60
2022-08-07T01:20:30.930Z,15.60
2022-08-07T01:23:09.428Z,15.60
2022-08-07T01:25:55.222Z,15.50
2022-08-07T01:28:24.117Z,15.50
2022-08-07T01:30:53.123Z,15.40
2022-08-07T01:33:21.547Z,15.40
2022-08-07T01:35:54.001Z,15.40
2022-08-07T01:38:25.983Z,15.50
2022-08-07T01:41:00.636Z,15.30
2022-08-07T01:43:38.057Z,15.30
2022-08-07T01:46:05.794Z,15.30
2022-08-07T01:48:35.678Z,15.20
2022-08-07T01:52:00.940Z,15.10
2022-08-07T01:54:09.621Z,15.20
2022-08-07T01:56:53.305Z,15.20
2022-08-07T01:59:30.870Z,15.20
2022-08-07T02:02:04.231Z,15.30
2022-08-07T02:04:40.418Z,15.30
2022-08-07T02:07:24.477Z,15.10
2022-08-07T02:10:04.512Z,15.00
2022-08-07T02:12:33.842Z,15.10
2022-08-07T02:15:01.067Z,15.10
2022-08-07T02:17:34.177Z,15.10
2022-08-07T02:20:04.452Z,15.10
2022-08-07T02:22:34.355Z,14.90
2022-08-07T02:25:01.926Z,14.90
2022-08-07T02:27:35.080Z,14.80
2022-08-07T02:30:07.409Z,14.70
2022-08-07T02:32:39.511Z,14.90
2022-08-07T02:36:27.055Z,14.80
2022-08-07T02:38:11.413Z,14.70
2022-08-07T02:40:41.964Z,14.90
2022-08-07T02:43:14.749Z,14.90
2022-08-07T02:45:58.571Z,14.70
2022-08-07T02:48:28.306Z,14.80
2022-08-07T02:50:56.147Z,14.60
2022-08-07T02:53:27.447Z,14.50
2022-08-07T02:56:04.468Z,14.30
2022-08-07T02:58:33.438Z,14.50
2022-08-07T03:01:00.646Z,14.50
2022-08-07T03:03:49.117Z,14.40
2022-08-07T03:06:26.177Z,14.40
2022-08-07T03:09:05.418Z,14.40
2022-08-07T03:11:32.650Z,14.40
2022-08-07T03:14:04.504Z,14.40
2022-08-07T03:16:31.825Z,14.20
2022-08-07T03:18:59.425Z,14.20
2022-08-07T03:21:27.891Z,14.30
2022-08-07T03:24:20.056Z,14.30
2022-08-07T03:26:58.522Z,14.30
2022-08-07T03:29:36.636Z,14.30
2022-08-07T03:32:08.286Z,14.30
2022-08-07T03:34:39.345Z,14.30
2022-08-07T03:37:14.012Z,14.20
2022-08-07T03:39:45.879Z,14.30
2022-08-07T03:42:26.279Z,14.30
2022-08-07T03:44:57.756Z,14.30
2022-08-07T03:47:26.258Z,14.20
2022-08-07T03:49:57.648Z,14.20
2022-08-07T03:52:27.596Z,14.30
2022-08-07T03:55:06.485Z,14.30
2022-08-07T03:58:33.768Z,14.30
2022-08-07T04:00:30.475Z,14.20
2022-08-07T04:03:03.851Z,14.20
2022-08-07T04:05:40.783Z,14.10
2022-08-07T04:08:16.141Z,14.10
2022-08-07T04:10:54.472Z,14.10
2022-08-07T04:14:32.961Z,13.90
2022-08-07T04:16:31.585Z,14.00
2022-08-07T04:19:15.216Z,13.90
2022-08-07T04:21:48.081Z,14.00
2022-08-07T04:24:30.495Z,14.00
2022-08-07T04:27:02.952Z,14.00
2022-08-07T04:29:48.755Z,14.00
2022-08-07T04:32:18.467Z,14.10
2022-08-07T04:35:03.970Z,14.20
2022-08-07T04:38:00.823Z,14.20
2022-08-07T04:40:22.197Z,14.20
2022-08-07T04:42:53.964Z,14.10
2022-08-07T04:45:52.246Z,14.00
2022-08-07T04:48:52.073Z,13.80
2022-08-07T04:51:58.055Z,13.70
2022-08-07T04:54:50.377Z,13.80
2022-08-07T04:58:10.440Z,13.80
2022-08-07T05:00:33.748Z,13.90
2022-08-07T05:04:00.008Z,14.00
2022-08-07T05:06:23.045Z,14.00
2022-08-07T05:09:10.999Z,14.00
2022-08-07T05:11:57.963Z,14.00
2022-08-07T05:14:54.636Z,14.10
2022-08-07T05:17:52.868Z,14.10
2022-08-07T05:20:31.571Z,14.20
2022-08-07T05:23:02.208Z,14.10
2022-08-07T05:26:11.168Z,14.10
2022-08-07T05:28:22.802Z,14.10
2022-08-07T05:30:52.357Z,14.20
2022-08-07T05:33:21.305Z,14.30
2022-08-07T05:35:51.880Z,14.30
2022-08-07T05:39:00.370Z,14.30
2022-08-07T05:41:14.001Z,14.30
2022-08-07T05:44:01.561Z,14.40
2022-08-07T05:46:31.947Z,14.40
2022-08-07T05:48:59.397Z,14.40
2022-08-07T05:51:31.773Z,14.50
2022-08-07T05:54:13.548Z,14.50
2022-08-07T05:56:48.550Z,14.50
2022-08-07T05:59:20.747Z,14.60
2022-08-07T06:01:48.632Z,14.60
2022-08-07T06:04:17.476Z,14.60
2022-08-07T06:06:46.079Z,14.60
2022-08-07T06:09:16.074Z,14.60
2022-08-07T06:11:43.414Z,14.70
2022-08-07T06:14:20.681Z,14.70
2022-08-07T06:16:50.459Z,14.70
2022-08-07T06:19:52.370Z,14.80
2022-08-07T06:22:15.858Z,14.80
2022-08-07T06:24:57.683Z,14.80
2022-08-07T06:27:44.502Z,15.00
2022-08-07T06:30:24.324Z,14.90
2022-08-07T06:33:02.524Z,14.90
2022-08-07T06:35:39.191Z,14.90
2022-08-07T06:38:20.037Z,15.00
2022-08-07T06:40:52.021Z,15.20
2022-08-07T06:43:22.398Z,15.30
2022-08-07T06:45:58.557Z,15.40
2022-08-07T06:48:27.853Z,15.60
2022-08-07T06:50:55.580Z,15.80
2022-08-07T06:55:27.920Z,16.00
2022-08-07T06:56:15.566Z,16.20
2022-08-07T07:00:13.244Z,16.40
2022-08-07T07:01:41.826Z,16.60
2022-08-07T07:04:27.949Z,16.70
2022-08-07T07:07:01.343Z,16.90
2022-08-07T07:09:31.195Z,17.10
2022-08-07T07:12:14.156Z,17.20
2022-08-07T07:15:03.310Z,17.40
2022-08-07T07:17:58.127Z,17.70
2022-08-07T07:20:54.549Z,17.70
2022-08-07T07:24:09.693Z,17.80
2022-08-07T07:26:32.620Z,17.50
2022-08-07T07:29:57.029Z,17.30
2022-08-07T07:31:51.643Z,17.50
2022-08-07T07:34:22.834Z,17.60
2022-08-07T07:37:14.559Z,17.10
2022-08-07T07:39:54.892Z,17.40
2022-08-07T07:42:25.822Z,17.30
2022-08-07T07:45:03.266Z,17.40
2022-08-07T07:47:52.186Z,17.80
2022-08-07T07:50:32.840Z,18.00
2022-08-07T07:53:04.537Z,18.10
2022-08-07T07:55:37.404Z,18.40
2022-08-07T07:58:13.514Z,18.50
2022-08-07T08:00:41.292Z,18.50
2022-08-07T08:03:16.593Z,18.50
2022-08-07T08:05:55.111Z,18.70
2022-08-07T08:08:35.417Z,18.80
2022-08-07T08:11:09.353Z,18.80
2022-08-07T08:13:54.905Z,18.90
2022-08-07T08:16:38.193Z,18.90
2022-08-07T08:19:17.626Z,19.00
2022-08-07T08:22:16.855Z,18.90
2022-08-07T08:25:18.559Z,18.80
2022-08-07T08:27:56.987Z,18.90
2022-08-07T08:30:29.531Z,18.50
2022-08-07T08:32:59.523Z,17.90
2022-08-07T08:35:28.518Z,18.20
2022-08-07T08:38:03.214Z,18.40
2022-08-07T08:40:38.164Z,18.60
2022-08-07T08:43:18.006Z,18.40
2022-08-07T08:45:59.117Z,18.50
2022-08-07T08:48:51.662Z,18.40
2022-08-07T08:52:12.446Z,18.30
2022-08-07T08:54:32.680Z,18.40
2022-08-07T08:57:04.286Z,18.20
2022-08-07T08:59:41.831Z,18.40
2022-08-07T09:02:40.255Z,18.70
2022-08-07T09:05:43.145Z,18.70
2022-08-07T09:08:28.770Z,18.70
2022-08-07T09:11:50.502Z,18.80
2022-08-07T09:14:36.584Z,18.90
2022-08-07T09:18:02.104Z,19.00
2022-08-07T09:20:51.934Z,18.90
2022-08-07T09:24:53.721Z,19.00
2022-08-07T09:26:50.917Z,19.00
2022-08-07T09:30:03.549Z,19.00
2022-08-07T09:32:58.993Z,19.20
2022-08-07T09:36:09.750Z,19.50
2022-08-07T09:39:55.289Z,19.60
2022-08-07T09:42:25.270Z,19.80
2022-08-07T09:47:27.738Z,19.60
2022-08-07T09:49:02.225Z,19.50
2022-08-07T09:52:09.874Z,19.40
2022-08-07T09:54:47.937Z,19.60
2022-08-07T09:57:46.802Z,19.60
2022-08-07T10:00:21.286Z,19.70
2022-08-07T10:04:05.778Z,19.70
2022-08-07T10:06:38.176Z,19.90
2022-08-07T10:09:23.617Z,20.10
2022-08-07T10:12:21.737Z,20.30
2022-08-07T10:15:18.632Z,20.10
2022-08-07T10:18:11.939Z,20.00
2022-08-07T10:21:50.761Z,20.00
2022-08-07T10:24:21.634Z,20.10
2022-08-07T10:27:16.118Z,20.20
2022-08-07T10:30:07.060Z,20.20
2022-08-07T10:33:08.493Z,20.30
2022-08-07T10:35:55.754Z,20.20
2022-08-07T10:39:10.942Z,20.20
2022-08-07T10:41:53.281Z,20.20
2022-08-07T10:44:37.693Z,20.30
2022-08-07T10:47:31.165Z,20.40
2022-08-07T10:50:15.360Z,20.30
2022-08-07T10:52:57.621Z,20.30
2022-08-07T10:55:37.978Z,20.40
2022-08-07T10:58:33.404Z,20.50
2022-08-07T11:01:12.231Z,20.40
2022-08-07T11:03:55.145Z,20.30
2022-08-07T11:06:59.594Z,20.30
2022-08-07T11:10:07.026Z,20.50
2022-08-07T11:12:31.643Z,20.50
2022-08-07T11:15:14.778Z,20.80
2022-08-07T11:17:56.661Z,20.70
2022-08-07T11:20:52.849Z,20.80
2022-08-07T11:23:38.554Z,20.80
2022-08-07T11:26:15.009Z,20.90
2022-08-07T11:28:55.200Z,21.00
2022-08-07T11:31:27.564Z,21.20
2022-08-07T11:34:00.322Z,21.00
2022-08-07T11:36:39.914Z,21.10
2022-08-07T11:39:59.070Z,21.30
2022-08-07T11:42:32.662Z,21.40
2022-08-07T11:45:09.364Z,21.30
2022-08-07T11:47:55.925Z,21.30
2022-08-07T11:51:10.279Z,21.40
2022-08-07T11:54:16.849Z,21.30
2022-08-07T11:57:57.974Z,21.10
2022-08-07T12:00:19.674Z,21.30
2022-08-07T12:03:45.631Z,21.50
2022-08-07T12:06:39.808Z,21.40
2022-08-07T12:09:24.433Z,21.10
2022-08-07T12:12:33.740Z,21.30
2022-08-07T12:15:46.665Z,21.50
2022-08-07T12:18:29.686Z,21.60
2022-08-07T12:21:14.972Z,21.40
2022-08-07T12:24:05.358Z,21.40
2022-08-07T12:26:54.132Z,21.40
2022-08-07T12:29:37.753Z,21.30
2022-08-07T12:32:13.121Z,21.40
2022-08-07T12:34:42.524Z,21.40
2022-08-07T12:37:23.363Z,21.30
2022-08-07T12:39:51.812Z,21.30
2022-08-07T12:42:28.094Z,21.40
2022-08-07T12:44:58.612Z,21.40
2022-08-07T12:47:50.317Z,21.50
2022-08-07T12:50:38.719Z,21.50
2022-08-07T12:53:30.246Z,21.50
2022-08-07T12:56:26.616Z,21.50
2022-08-07T12:58:57.187Z,21.50
2022-08-07T13:01:27.924Z,21.60
2022-08-07T13:04:34.067Z,21.70
2022-08-07T13:08:11.929Z,21.90
2022-08-07T13:10:39.268Z,22.00
2022-08-07T13:13:48.233Z,21.90
2022-08-07T13:16:29.452Z,21.90
2022-08-07T13:19:06.119Z,21.90
2022-08-07T13:22:19.937Z,21.80
2022-08-07T13:24:55.226Z,21.90
2022-08-07T13:28:05.790Z,22.00
2022-08-07T13:30:19.263Z,22.10
2022-08-07T13:34:30.826Z,22.10
2022-08-07T13:36:17.761Z,22.10
2022-08-07T13:38:57.078Z,22.30
2022-08-07T13:41:27.925Z,22.20
2022-08-07T13:43:56.688Z,22.30
2022-08-07T13:46:28.299Z,22.30
2022-08-07T13:49:01.725Z,22.30
2022-08-07T13:52:22.634Z,22.20
2022-08-07T13:54:23.826Z,22.40
2022-08-07T13:56:59.775Z,22.60
2022-08-07T13:59:32.366Z,22.40
2022-08-07T14:02:10.702Z,22.40
2022-08-07T14:04:54.654Z,22.40
2022-08-07T14:07:31.841Z,22.40
2022-08-07T14:10:17.659Z,22.40
2022-08-07T14:13:02.967Z,22.40
2022-08-07T14:15:43.243Z,22.50
2022-08-07T14:18:28.314Z,22.50
2022-08-07T14:22:04.248Z,22.40
2022-08-07T14:24:22.921Z,22.40
2022-08-07T14:26:51.574Z,22.30
2022-08-07T14:30:06.276Z,22.30
2022-08-07T14:32:16.419Z,22.50
2022-08-07T14:34:47.339Z,22.40
2022-08-07T14:37:17.083Z,22.40
2022-08-07T14:40:16.565Z,22.50
2022-08-07T14:42:33.845Z,22.50
2022-08-07T14:45:21.519Z,22.30
2022-08-07T14:47:58.492Z,22.30
2022-08-07T14:50:26.674Z,22.30
2022-08-07T14:52:53.675Z,22.40
2022-08-07T14:55:21.583Z,22.40
2022-08-07T14:57:58.860Z,22.40
2022-08-07T15:00:31.234Z,22.50
2022-08-07T15:05:55.234Z,22.30
2022-08-07T15:08:50.182Z,22.30
2022-08-07T15:11:52.820Z,22.50
2022-08-07T15:14:22.930Z,22.40
2022-08-07T15:17:11.474Z,22.40
2022-08-07T15:20:31.118Z,22.40
2022-08-07T15:22:53.727Z,22.40
2022-08-07T15:25:36.749Z,22.50
2022-08-07T15:28:32.169Z,22.40
2022-08-07T15:31:04.977Z,22.40
2022-08-07T15:33:36.036Z,22.70
2022-08-07T15:36:05.695Z,22.40
2022-08-07T15:38:59.277Z,22.40
2022-08-07T15:44:17.246Z,22.30
2022-08-07T15:46:51.819Z,22.30
2022-08-07T15:49:25.594Z,22.40
2022-08-07T15:52:13.494Z,22.50
2022-08-07T15:54:43.232Z,22.30
2022-08-07T15:57:28.369Z,22.30
2022-08-07T16:00:04.493Z,22.30
2022-08-07T16:02:39.059Z,22.30
2022-08-07T16:05:18.506Z,22.30
2022-08-07T16:08:31.705Z,22.30
2022-08-07T16:10:58.340Z,22.20
2022-08-07T16:13:59.944Z,22.20
2022-08-07T16:16:48.006Z,22.10
2022-08-07T16:19:43.128Z,22.00
2022-08-07T16:22:38.105Z,22.00
2022-08-07T16:25:52.632Z,22.00
2022-08-07T16:30:06.346Z,22.00
2022-08-07T16:31:57.284Z,22.00
2022-08-07T16:34:45.473Z,21.90
2022-08-07T16:38:03.892Z,22.00
2022-08-07T16:40:57.031Z,21.90
2022-08-07T16:44:02.378Z,21.80
2022-08-07T16:47:13.038Z,21.90
2022-08-07T16:50:20.439Z,21.70
2022-08-07T16:52:57.528Z,21.70
2022-08-07T16:55:46.982Z,21.60
2022-08-07T16:58:17.339Z,21.50
2022-08-07T17:00:55.247Z,21.60
2022-08-07T17:03:59.462Z,21.50
2022-08-07T17:07:02.973Z,21.50
2022-08-07T17:10:06.940Z,21.50
2022-08-07T17:13:04.103Z,21.40
2022-08-07T17:15:50.767Z,21.40
2022-08-07T17:18:55.889Z,21.40
2022-08-07T17:21:29.372Z,21.40
2022-08-07T17:24:32.859Z,21.30
2022-08-07T17:27:08.589Z,21.30
2022-08-07T17:30:15.476Z,21.40
2022-08-07T17:32:54.856Z,21.40
2022-08-07T17:35:50.481Z,21.30
2022-08-07T17:38:32.090Z,21.20
2022-08-07T17:42:03.009Z,21.10
2022-08-07T17:44:05.838Z,21.00
2022-08-07T17:46:42.334Z,21.00
2022-08-07T17:49:44.875Z,21.00
2022-08-07T17:52:30.621Z,21.10
2022-08-07T17:55:15.981Z,21.10
2022-08-07T17:58:30.458Z,21.00
2022-08-07T18:00:58.258Z,21.00
2022-08-07T18:04:04.413Z,20.90
2022-08-07T18:06:38.646Z,20.90
2022-08-07T18:09:06.528Z,20.90
2022-08-07T18:12:20.000Z,20.90
2022-08-07T18:15:09.089Z,20.90
2022-08-07T18:18:46.071Z,20.80
2022-08-07T18:21:09.846Z,20.90
2022-08-07T18:23:43.092Z,20.90
2022-08-07T18:26:15.177Z,20.80
2022-08-07T18:30:06.591Z,20.70
2022-08-07T18:32:24.515Z,20.70
2022-08-07T18:35:17.003Z,20.70
2022-08-07T18:38:58.641Z,20.60
2022-08-07T18:41:02.749Z,20.60
2022-08-07T18:44:08.348Z,20.50
2022-08-07T18:46:47.777Z,20.50
2022-08-07T18:50:19.275Z,20.50
2022-08-07T18:53:01.459Z,20.40
2022-08-07T18:56:03.046Z,20.30
2022-08-07T18:59:03.481Z,20.30
2022-08-07T19:02:20.025Z,20.30
2022-08-07T19:05:14.862Z,20.20
2022-08-07T19:08:06.610Z,20.20
2022-08-07T19:10:47.864Z,20.10
2022-08-07T19:13:21.524Z,20.00
2022-08-07T19:16:04.841Z,20.00
2022-08-07T19:19:13.105Z,20.00
2022-08-07T19:21:56.955Z,20.00
2022-08-07T19:24:54.025Z,20.00
2022-08-07T19:28:58.667Z,20.00
2022-08-07T19:30:57.504Z,20.00
2022-08-07T19:33:10.263Z,19.90
2022-08-07T19:35:40.842Z,19.90
2022-08-07T19:38:16.126Z,19.80
2022-08-07T19:40:49.356Z,19.80
2022-08-07T19:43:44.158Z,19.80
2022-08-07T19:46:10.481Z,19.80
2022-08-07T19:48:53.706Z,19.80
2022-08-07T19:51:24.171Z,19.70
2022-08-07T19:54:31.809Z,19.70
2022-08-07T19:58:00.890Z,19.70
2022-08-07T19:59:52.771Z,19.70
2022-08-07T20:02:30.670Z,19.70
2022-08-07T20:05:00.484Z,19.70
2022-08-07T20:07:45.984Z,19.60
2022-08-07T20:10:38.176Z,19.50
2022-08-07T20:13:45.195Z,19.50
2022-08-07T20:16:35.826Z,19.30
2022-08-07T20:19:05.850Z,19.50
2022-08-07T20:21:41.702Z,19.40
2022-08-07T20:24:35.089Z,19.40
2022-08-07T20:27:07.652Z,19.40
2022-08-07T20:29:56.885Z,19.40
2022-08-07T20:32:40.076Z,19.30
2022-08-07T20:35:26.557Z,19.30
2022-08-07T20:37:59.527Z,19.20
2022-08-07T20:40:33.149Z,19.20
2022-08-07T20:43:02.724Z,19.10
2022-08-07T20:46:26.123Z,19.10
2022-08-07T20:48:29.682Z,19.10
2022-08-07T20:51:01.744Z,19.00
2022-08-07T20:54:03.086Z,19.00
2022-08-07T20:56:29.449Z,19.00
2022-08-07T20:59:02.054Z,18.90
2022-08-07T21:01:45.455Z,19.00
2022-08-07T21:04:22.489Z,18.90
2022-08-07T21:06:56.822Z,18.90
2022-08-07T21:09:42.828Z,18.90
2022-08-07T21:12:26.039Z,18.80
2022-08-07T21:14:59.009Z,18.80
2022-08-07T21:18:02.345Z,18.80
2022-08-07T21:20:26.862Z,18.90
2022-08-07T21:23:08.666Z,18.80
2022-08-07T21:26:10.985Z,18.70
2022-08-07T21:28:56.054Z,18.70
2022-08-07T21:32:47.887Z,18.70
2022-08-07T21:34:59.765Z,18.70
2022-08-07T21:37:59.549Z,18.60
2022-08-07T21:40:27.020Z,18.60
2022-08-07T21:42:56.693Z,18.60
2022-08-07T21:46:11.353Z,18.60
2022-08-07T21:48:56.937Z,18.60
2022-08-07T21:51:27.460Z,18.50
2022-08-07T21:54:22.303Z,18.50
2022-08-07T21:57:06.871Z,18.50
2022-08-07T22:00:05.418Z,18.50
2022-08-07T22:02:53.826Z,18.40
2022-08-07T22:05:45.509Z,18.50
2022-08-07T22:08:13.129Z,18.40
2022-08-07T22:10:42.527Z,18.40
2022-08-07T22:13:13.709Z,18.40
2022-08-07T22:16:38.347Z,18.30
2022-08-07T22:19:02.991Z,18.40
2022-08-07T22:22:01.887Z,18.30
2022-08-07T22:24:33.367Z,18.30
2022-08-07T22:27:02.653Z,18.20
2022-08-07T22:29:48.312Z,18.20
2022-08-07T22:32:37.258Z,18.10
2022-08-07T22:35:11.220Z,18.10
2022-08-07T22:38:04.423Z,18.10
2022-08-07T22:40:52.164Z,18.10
2022-08-07T22:43:54.584Z,18.10
2022-08-07T22:47:04.231Z,18.00
2022-08-07T22:50:09.804Z,18.10
2022-08-07T22:53:01.873Z,18.10
2022-08-07T22:55:57.064Z,18.00
2022-08-07T22:58:28.161Z,17.90
2022-08-07T23:01:23.689Z,17.90
2022-08-07T23:04:28.946Z,17.90
2022-08-07T23:07:41.540Z,17.80
2022-08-07T23:10:41.892Z,17.80
2022-08-07T23:13:29.448Z,17.70
2022-08-07T23:16:44.699Z,17.70
2022-08-07T23:19:52.016Z,17.60
2022-08-07T23:22:49.873Z,17.60
2022-08-07T23:25:37.415Z,17.50
2022-08-07T23:28:35.680Z,17.50
2022-08-07T23:31:42.934Z,17.50
2022-08-07T23:34:37.858Z,17.50
2022-08-07T23:37:20.155Z,17.40
2022-08-07T23:40:07.963Z,17.30
2022-08-07T23:42:45.781Z,17.30
2022-08-07T23:46:02.657Z,17.20
2022-08-07T23:49:19.982Z,17.10
2022-08-07T23:52:58.509Z,17.00
2022-08-07T23:55:11.899Z,17.00
2022-08-07T23:58:18.690Z,16.90
